createdAt,value
2019-06-20T00:00:29.394Z,3.37
2019-06-20T00:01:05.239Z,4.10
2019-06-20T00:01:41.016Z,3.50
2019-06-20T00:02:16.867Z,5.30
2019-06-20T00:02:52.810Z,4.57
2019-06-20T00:03:28.647Z,3.40
2019-06-20T00:04:04.624Z,4.00
2019-06-20T00:04:40.668Z,3.83
2019-06-20T00:05:16.530Z,3.50
2019-06-20T00:05:52.366Z,4.37
2019-06-20T00:06:28.171Z,3.93
2019-06-20T00:07:04.122Z,4.40
2019-06-20T00:07:39.956Z,4.00
2019-06-20T00:08:15.825Z,2.93
2019-06-20T00:08:51.684Z,3.57
2019-06-20T00:09:27.535Z,3.60
2019-06-20T00:10:03.574Z,3.50
2019-06-20T00:10:39.522Z,3.80
2019-06-20T00:11:15.360Z,3.50
2019-06-20T00:11:51.287Z,3.93
2019-06-20T00:12:27.148Z,3.70
2019-06-20T00:13:03.056Z,2.60
2019-06-20T00:13:38.878Z,2.67
2019-06-20T00:14:14.807Z,2.80
2019-06-20T00:14:51.053Z,2.50
2019-06-20T00:15:26.980Z,2.70
2019-06-20T00:16:02.805Z,2.77
2019-06-20T00:16:38.683Z,2.77
2019-06-20T00:17:14.558Z,2.37
2019-06-20T00:17:50.534Z,3.10
2019-06-20T00:18:26.355Z,2.70
2019-06-20T00:19:02.238Z,3.63
2019-06-20T00:19:38.185Z,3.13
2019-06-20T00:20:14.300Z,2.33
2019-06-20T00:20:50.224Z,2.70
2019-06-20T00:21:26.057Z,3.33
2019-06-20T00:22:02.091Z,3.80
2019-06-20T00:22:38.090Z,3.17
2019-06-20T00:23:14.113Z,3.30
2019-06-20T00:23:50.226Z,3.03
2019-06-20T00:24:26.042Z,4.10
2019-06-20T00:25:02.949Z,2.50
2019-06-20T00:25:39.074Z,3.80
2019-06-20T00:26:14.870Z,3.17
2019-06-20T00:26:50.729Z,3.50
2019-06-20T00:27:26.753Z,3.10
2019-06-20T00:28:02.546Z,3.30
2019-06-20T00:28:38.414Z,3.00
2019-06-20T00:29:14.245Z,3.07
2019-06-20T00:29:50.207Z,3.20
2019-06-20T00:30:26.072Z,3.60
2019-06-20T00:31:02.023Z,3.27
2019-06-20T00:31:37.876Z,4.20
2019-06-20T00:32:13.853Z,3.00
2019-06-20T00:32:49.706Z,3.10
2019-06-20T00:33:25.529Z,3.13
2019-06-20T00:34:01.488Z,2.60
2019-06-20T00:34:37.371Z,3.67
2019-06-20T00:35:13.251Z,3.60
2019-06-20T00:35:49.285Z,3.33
2019-06-20T00:36:25.116Z,3.50
2019-06-20T00:37:00.981Z,3.50
2019-06-20T00:37:36.824Z,3.17
2019-06-20T00:38:12.658Z,2.63
2019-06-20T00:38:48.500Z,3.50
2019-06-20T00:39:24.321Z,2.93
2019-06-20T00:40:00.177Z,3.30
2019-06-20T00:40:36.035Z,2.50
2019-06-20T00:41:11.895Z,3.50
2019-06-20T00:41:47.771Z,2.97
2019-06-20T00:42:23.653Z,3.63
2019-06-20T00:42:59.530Z,3.50
2019-06-20T00:43:35.326Z,3.87
2019-06-20T00:44:11.327Z,3.10
2019-06-20T00:44:47.173Z,4.20
2019-06-20T00:45:23.066Z,3.13
2019-06-20T00:45:58.923Z,2.73
2019-06-20T00:46:34.769Z,3.03
2019-06-20T00:47:10.587Z,3.40
2019-06-20T00:47:46.404Z,2.30
2019-06-20T00:48:22.291Z,2.73
2019-06-20T00:48:58.179Z,3.77
2019-06-20T00:49:34.029Z,3.00
2019-06-20T00:50:10.481Z,3.07
2019-06-20T00:50:46.491Z,3.50
2019-06-20T00:51:22.359Z,2.93
2019-06-20T00:51:58.216Z,2.63
2019-06-20T00:52:34.023Z,3.27
2019-06-20T00:53:09.858Z,3.70
2019-06-20T00:53:45.832Z,2.70
2019-06-20T00:54:21.678Z,3.20
2019-06-20T00:54:57.519Z,3.07
2019-06-20T00:55:33.351Z,2.33
2019-06-20T00:56:09.334Z,2.97
2019-06-20T00:56:45.255Z,3.07
2019-06-20T00:57:21.067Z,3.30
2019-06-20T00:57:56.908Z,2.63
2019-06-20T00:58:32.758Z,3.10
2019-06-20T00:59:08.587Z,3.80
2019-06-20T00:59:44.410Z,4.37
2019-06-20T01:00:20.931Z,3.47
2019-06-20T01:00:56.821Z,3.10
2019-06-20T01:01:32.701Z,3.17
2019-06-20T01:02:08.587Z,3.13
2019-06-20T01:02:44.476Z,3.40
2019-06-20T01:03:20.310Z,3.17
2019-06-20T01:03:56.169Z,2.93
2019-06-20T01:04:32.021Z,2.37
2019-06-20T01:05:08.095Z,3.17
2019-06-20T01:05:44.365Z,3.30
2019-06-20T01:06:20.206Z,3.10
2019-06-20T01:06:56.185Z,3.30
2019-06-20T01:07:32.059Z,3.17
2019-06-20T01:08:07.987Z,2.97
2019-06-20T01:08:43.922Z,2.90
2019-06-20T01:09:19.816Z,3.00
2019-06-20T01:09:55.836Z,3.57
2019-06-20T01:10:31.715Z,3.17
2019-06-20T01:11:07.549Z,3.80
2019-06-20T01:11:43.400Z,4.37
2019-06-20T01:12:19.239Z,3.30
2019-06-20T01:12:55.070Z,3.63
2019-06-20T01:13:34.083Z,2.57
2019-06-20T01:14:08.698Z,2.70
2019-06-20T01:14:44.570Z,3.50
2019-06-20T01:15:20.399Z,3.40
2019-06-20T01:15:56.360Z,4.47
2019-06-20T01:16:32.388Z,3.00
2019-06-20T01:17:08.290Z,3.10
2019-06-20T01:17:44.155Z,3.20
2019-06-20T01:18:19.970Z,4.20
2019-06-20T01:18:55.906Z,3.80
2019-06-20T01:19:31.898Z,3.27
2019-06-20T01:20:08.173Z,3.13
2019-06-20T01:20:44.033Z,3.30
2019-06-20T01:21:19.883Z,2.83
2019-06-20T01:21:55.714Z,2.90
2019-06-20T01:22:31.799Z,3.60
2019-06-20T01:23:07.752Z,2.77
2019-06-20T01:23:43.594Z,3.07
2019-06-20T01:24:19.441Z,3.77
2019-06-20T01:24:55.328Z,2.87
2019-06-20T01:25:43.094Z,3.00
2019-06-20T01:26:18.986Z,3.17
2019-06-20T01:26:54.862Z,2.70
2019-06-20T01:27:30.682Z,2.70
2019-06-20T01:28:06.743Z,2.90
2019-06-20T01:28:42.594Z,2.87
2019-06-20T01:29:18.438Z,3.00
2019-06-20T01:29:54.239Z,2.57
2019-06-20T01:30:30.050Z,2.73
2019-06-20T01:31:06.137Z,2.47
2019-06-20T01:31:42.129Z,2.90
2019-06-20T01:32:18.043Z,3.07
2019-06-20T01:32:53.883Z,2.10
2019-06-20T01:33:29.754Z,2.60
2019-06-20T01:34:05.675Z,2.53
2019-06-20T01:34:41.512Z,2.03
2019-06-20T01:35:17.344Z,2.67
2019-06-20T01:35:53.303Z,2.60
2019-06-20T01:36:29.263Z,3.60
2019-06-20T01:37:05.139Z,2.93
2019-06-20T01:37:40.983Z,2.67
2019-06-20T01:38:16.833Z,2.40
2019-06-20T01:38:52.657Z,2.13
2019-06-20T01:39:28.517Z,2.83
2019-06-20T01:40:04.473Z,2.20
2019-06-20T01:40:40.244Z,2.60
2019-06-20T01:41:16.093Z,2.67
2019-06-20T01:41:51.885Z,1.70
2019-06-20T01:42:27.718Z,2.03
2019-06-20T01:43:03.562Z,2.90
2019-06-20T01:43:50.011Z,2.10
2019-06-20T01:44:17.108Z,1.73
2019-06-20T01:44:53.015Z,2.43
2019-06-20T01:45:28.851Z,2.30
2019-06-20T01:46:04.682Z,1.80
2019-06-20T01:46:40.508Z,1.93
2019-06-20T01:47:16.361Z,1.30
2019-06-20T01:47:52.221Z,2.20
2019-06-20T01:48:28.058Z,2.23
2019-06-20T01:49:03.902Z,2.07
2019-06-20T01:49:39.733Z,2.00
2019-06-20T01:50:15.652Z,1.63
2019-06-20T01:50:51.498Z,1.73
2019-06-20T01:51:27.309Z,1.63
2019-06-20T01:52:03.208Z,1.90
2019-06-20T01:52:39.107Z,1.00
2019-06-20T01:53:14.959Z,1.67
2019-06-20T01:53:50.823Z,1.70
2019-06-20T01:54:26.661Z,1.77
2019-06-20T01:55:02.476Z,1.70
2019-06-20T01:55:38.329Z,1.07
2019-06-20T01:56:14.188Z,1.63
2019-06-20T01:56:50.075Z,1.20
2019-06-20T01:57:25.974Z,1.40
2019-06-20T01:58:01.834Z,1.43
2019-06-20T01:58:37.662Z,0.90
2019-06-20T01:59:13.498Z,1.50
2019-06-20T01:59:49.331Z,1.67
2019-06-20T02:00:44.570Z,1.60
2019-06-20T02:01:20.414Z,1.90
2019-06-20T02:01:56.202Z,1.53
2019-06-20T02:02:32.025Z,1.60
2019-06-20T02:03:07.965Z,1.60
2019-06-20T02:03:43.941Z,1.80
2019-06-20T02:04:19.836Z,1.60
2019-06-20T02:04:55.798Z,1.57
2019-06-20T02:05:31.670Z,1.40
2019-06-20T02:06:07.536Z,1.00
2019-06-20T02:06:43.775Z,1.10
2019-06-20T02:07:19.600Z,1.20
2019-06-20T02:07:55.403Z,1.20
2019-06-20T02:08:31.248Z,1.00
2019-06-20T02:09:09.503Z,1.37
2019-06-20T02:09:45.360Z,1.20
2019-06-20T02:10:21.336Z,1.23
2019-06-20T02:10:57.143Z,1.33
2019-06-20T02:11:33.003Z,1.67
2019-06-20T02:12:08.977Z,1.43
2019-06-20T02:12:44.863Z,1.10
2019-06-20T02:13:20.972Z,1.37
2019-06-20T02:14:06.821Z,1.00
2019-06-20T02:14:34.560Z,1.27
2019-06-20T02:15:10.504Z,1.40
2019-06-20T02:15:46.282Z,1.10
2019-06-20T02:16:22.168Z,1.10
2019-06-20T02:16:57.985Z,0.80
2019-06-20T02:17:33.845Z,1.33
2019-06-20T02:18:09.682Z,1.20
2019-06-20T02:18:45.531Z,1.33
2019-06-20T02:19:21.413Z,1.07
2019-06-20T02:19:57.253Z,1.47
2019-06-20T02:20:36.232Z,1.20
2019-06-20T02:21:12.066Z,1.13
2019-06-20T02:21:47.905Z,1.17
2019-06-20T02:22:23.717Z,1.00
2019-06-20T02:22:59.736Z,1.20
2019-06-20T02:23:35.606Z,1.20
2019-06-20T02:24:11.461Z,1.30
2019-06-20T02:24:47.405Z,1.20
2019-06-20T02:25:23.247Z,1.10
2019-06-20T02:25:59.129Z,1.20
2019-06-20T02:26:35.070Z,1.43
2019-06-20T02:27:10.947Z,0.83
2019-06-20T02:27:46.933Z,1.40
2019-06-20T02:28:22.807Z,1.00
2019-06-20T02:28:58.717Z,1.17
2019-06-20T02:29:34.538Z,1.10
2019-06-20T02:30:10.443Z,0.80
2019-06-20T02:30:46.271Z,0.83
2019-06-20T02:31:22.148Z,1.10
2019-06-20T02:31:58.008Z,1.17
2019-06-20T02:32:33.879Z,1.30
2019-06-20T02:33:09.687Z,1.10
2019-06-20T02:33:45.572Z,1.47
2019-06-20T02:34:21.508Z,1.20
2019-06-20T02:34:57.384Z,1.50
2019-06-20T02:35:33.244Z,1.00
2019-06-20T02:36:09.085Z,1.00
2019-06-20T02:36:45.083Z,1.27
2019-06-20T02:37:20.887Z,1.23
2019-06-20T02:37:56.746Z,1.23
2019-06-20T02:38:32.622Z,1.30
2019-06-20T02:39:09.449Z,1.03
2019-06-20T02:39:45.462Z,0.80
2019-06-20T02:40:21.469Z,1.07
2019-06-20T02:40:57.380Z,1.60
2019-06-20T02:41:33.250Z,1.60
2019-06-20T02:42:09.123Z,0.83
2019-06-20T02:42:44.983Z,0.77
2019-06-20T02:43:20.856Z,1.43
2019-06-20T02:43:56.686Z,1.00
2019-06-20T02:44:32.705Z,1.10
2019-06-20T02:45:08.728Z,1.37
2019-06-20T02:45:44.787Z,1.40
2019-06-20T02:46:20.639Z,1.13
2019-06-20T02:46:56.526Z,0.93
2019-06-20T02:47:32.340Z,1.30
2019-06-20T02:48:08.235Z,1.27
2019-06-20T02:48:44.099Z,0.90
2019-06-20T02:49:19.947Z,1.60
2019-06-20T02:49:55.889Z,0.97
2019-06-20T02:50:32.352Z,1.00
2019-06-20T02:51:08.165Z,1.00
2019-06-20T02:51:44.031Z,1.10
2019-06-20T02:52:19.878Z,0.87
2019-06-20T02:52:56.187Z,1.03
2019-06-20T02:53:32.094Z,1.10
2019-06-20T02:54:07.950Z,1.07
2019-06-20T02:54:43.943Z,1.10
2019-06-20T02:55:19.786Z,1.20
2019-06-20T02:55:55.637Z,0.90
2019-06-20T02:56:31.508Z,1.00
2019-06-20T02:57:07.438Z,1.20
2019-06-20T02:57:43.421Z,1.00
2019-06-20T02:58:19.227Z,1.93
2019-06-20T02:58:55.075Z,1.50
2019-06-20T02:59:31.018Z,1.00
2019-06-20T03:00:07.836Z,0.87
2019-06-20T03:00:54.723Z,1.13
2019-06-20T03:01:30.512Z,0.93
2019-06-20T03:02:06.327Z,0.70
2019-06-20T03:02:42.181Z,1.03
2019-06-20T03:03:18.027Z,0.60
2019-06-20T03:03:53.861Z,0.50
2019-06-20T03:04:29.673Z,0.60
2019-06-20T03:05:05.626Z,0.60
2019-06-20T03:05:41.783Z,0.90
2019-06-20T03:06:17.642Z,0.60
2019-06-20T03:06:53.729Z,0.80
2019-06-20T03:07:29.919Z,1.10
2019-06-20T03:08:05.802Z,0.67
2019-06-20T03:08:41.798Z,0.90
2019-06-20T03:09:17.639Z,0.90
2019-06-20T03:09:53.480Z,0.80
2019-06-20T03:10:29.379Z,1.00
2019-06-20T03:11:05.186Z,0.60
2019-06-20T03:11:41.184Z,0.63
2019-06-20T03:12:17.059Z,0.77
2019-06-20T03:12:52.882Z,1.10
2019-06-20T03:13:28.759Z,0.80
2019-06-20T03:14:04.709Z,0.80
2019-06-20T03:14:45.482Z,0.57
2019-06-20T03:15:18.240Z,0.70
2019-06-20T03:15:54.023Z,0.63
2019-06-20T03:16:29.895Z,0.90
2019-06-20T03:17:05.707Z,1.03
2019-06-20T03:17:41.551Z,0.90
2019-06-20T03:18:17.376Z,1.37
2019-06-20T03:18:53.185Z,0.80
2019-06-20T03:19:29.043Z,0.60
2019-06-20T03:20:04.919Z,0.60
2019-06-20T03:20:40.766Z,0.70
2019-06-20T03:21:16.581Z,0.57
2019-06-20T03:21:52.391Z,1.00
2019-06-20T03:22:28.233Z,1.07
2019-06-20T03:23:04.067Z,0.80
2019-06-20T03:23:39.958Z,1.80
2019-06-20T03:24:15.851Z,1.33
2019-06-20T03:24:51.807Z,1.10
2019-06-20T03:25:27.840Z,1.63
2019-06-20T03:26:03.749Z,0.80
2019-06-20T03:26:39.585Z,1.00
2019-06-20T03:27:15.409Z,0.70
2019-06-20T03:27:51.231Z,0.50
2019-06-20T03:28:27.102Z,0.70
2019-06-20T03:29:02.926Z,0.77
2019-06-20T03:29:38.762Z,0.70
2019-06-20T03:30:14.934Z,0.63
2019-06-20T03:30:50.767Z,0.77
2019-06-20T03:31:26.653Z,1.40
2019-06-20T03:32:02.519Z,2.10
2019-06-20T03:32:38.340Z,0.60
2019-06-20T03:33:14.165Z,1.23
2019-06-20T03:33:50.123Z,1.00
2019-06-20T03:34:25.918Z,1.00
2019-06-20T03:35:01.738Z,0.80
2019-06-20T03:35:37.554Z,1.07
2019-06-20T03:36:13.370Z,0.70
2019-06-20T03:36:49.199Z,0.90
2019-06-20T03:37:24.960Z,0.60
2019-06-20T03:38:00.837Z,0.73
2019-06-20T03:38:36.704Z,1.23
2019-06-20T03:39:12.661Z,0.80
2019-06-20T03:39:48.500Z,1.10
2019-06-20T03:40:24.388Z,1.70
2019-06-20T03:41:00.251Z,0.77
2019-06-20T03:41:36.083Z,1.13
2019-06-20T03:42:11.900Z,1.57
2019-06-20T03:42:47.773Z,0.70
2019-06-20T03:43:23.595Z,0.50
2019-06-20T03:43:59.438Z,0.77
2019-06-20T03:44:35.301Z,0.70
2019-06-20T03:45:11.366Z,0.80
2019-06-20T03:45:47.399Z,1.33
2019-06-20T03:46:23.335Z,1.27
2019-06-20T03:46:59.146Z,1.10
2019-06-20T03:47:35.015Z,1.23
2019-06-20T03:48:10.899Z,0.83
2019-06-20T03:48:46.732Z,0.83
2019-06-20T03:49:22.630Z,0.80
2019-06-20T03:49:58.480Z,0.80
2019-06-20T03:50:34.603Z,0.70
2019-06-20T03:51:10.496Z,0.90
2019-06-20T03:51:46.461Z,1.23
2019-06-20T03:52:22.462Z,0.87
2019-06-20T03:53:03.823Z,0.77
2019-06-20T03:53:39.679Z,0.70
2019-06-20T03:54:15.841Z,0.90
2019-06-20T03:54:52.195Z,0.73
2019-06-20T03:55:28.237Z,0.50
2019-06-20T03:56:04.104Z,0.83
2019-06-20T03:56:39.988Z,1.00
2019-06-20T03:57:15.807Z,1.13
2019-06-20T03:57:51.591Z,0.80
2019-06-20T03:58:27.417Z,0.93
2019-06-20T03:59:03.420Z,1.17
2019-06-20T03:59:39.335Z,0.80
2019-06-20T04:00:15.257Z,1.20
2019-06-20T04:00:51.093Z,0.70
2019-06-20T04:01:26.888Z,0.87
2019-06-20T04:02:02.738Z,0.80
2019-06-20T04:02:38.548Z,0.80
2019-06-20T04:03:14.409Z,0.60
2019-06-20T04:03:50.266Z,1.30
2019-06-20T04:04:26.076Z,1.00
2019-06-20T04:05:02.115Z,0.50
2019-06-20T04:05:38.666Z,0.80
2019-06-20T04:06:14.598Z,0.90
2019-06-20T04:06:50.441Z,0.83
2019-06-20T04:07:26.270Z,0.60
2019-06-20T04:08:02.147Z,0.60
2019-06-20T04:08:38.361Z,1.00
2019-06-20T04:09:14.251Z,0.50
2019-06-20T04:09:50.194Z,0.97
2019-06-20T04:10:26.117Z,0.73
2019-06-20T04:11:02.003Z,0.60
2019-06-20T04:11:37.888Z,0.97
2019-06-20T04:12:13.827Z,1.13
2019-06-20T04:12:49.687Z,1.20
2019-06-20T04:13:25.533Z,0.90
2019-06-20T04:14:01.376Z,1.10
2019-06-20T04:14:37.129Z,0.63
2019-06-20T04:15:18.961Z,0.67
2019-06-20T04:15:50.801Z,0.63
2019-06-20T04:16:26.703Z,1.33
2019-06-20T04:17:02.567Z,1.07
2019-06-20T04:17:38.361Z,0.80
2019-06-20T04:18:14.285Z,0.50
2019-06-20T04:18:50.187Z,0.50
2019-06-20T04:19:26.164Z,0.70
2019-06-20T04:20:01.991Z,0.60
2019-06-20T04:20:37.914Z,0.80
2019-06-20T04:21:13.733Z,0.70
2019-06-20T04:21:49.606Z,0.93
2019-06-20T04:22:25.426Z,0.90
2019-06-20T04:23:01.272Z,0.50
2019-06-20T04:23:37.117Z,0.80
2019-06-20T04:24:13.099Z,0.67
2019-06-20T04:24:48.980Z,0.70
2019-06-20T04:25:24.814Z,0.77
2019-06-20T04:26:00.675Z,0.70
2019-06-20T04:26:36.511Z,0.40
2019-06-20T04:27:12.389Z,0.70
2019-06-20T04:27:48.239Z,0.60
2019-06-20T04:28:24.094Z,0.70
2019-06-20T04:28:59.939Z,0.70
2019-06-20T04:29:36.089Z,0.50
2019-06-20T04:30:12.451Z,0.50
2019-06-20T04:30:48.331Z,0.80
2019-06-20T04:31:24.163Z,1.20
2019-06-20T04:31:59.940Z,0.80
2019-06-20T04:32:35.816Z,0.60
2019-06-20T04:33:11.708Z,0.90
2019-06-20T04:33:47.540Z,1.13
2019-06-20T04:34:23.346Z,0.70
2019-06-20T04:34:59.215Z,0.80
2019-06-20T04:35:35.048Z,0.60
2019-06-20T04:36:11.134Z,0.63
2019-06-20T04:36:48.176Z,0.77
2019-06-20T04:37:24.182Z,0.60
2019-06-20T04:37:59.972Z,1.97
2019-06-20T04:38:35.811Z,0.80
2019-06-20T04:39:19.369Z,0.50
2019-06-20T04:39:49.269Z,0.97
2019-06-20T04:40:25.089Z,0.70
2019-06-20T04:41:00.934Z,0.70
2019-06-20T04:41:36.792Z,0.50
2019-06-20T04:42:12.675Z,0.70
2019-06-20T04:42:48.635Z,0.63
2019-06-20T04:43:24.476Z,0.97
2019-06-20T04:44:00.337Z,0.70
2019-06-20T04:44:36.149Z,0.70
2019-06-20T04:45:39.894Z,0.70
2019-06-20T04:46:24.227Z,0.73
2019-06-20T04:47:05.409Z,1.47
2019-06-20T04:47:41.246Z,0.50
2019-06-20T04:48:17.214Z,0.73
2019-06-20T04:48:53.146Z,0.60
2019-06-20T04:49:29.006Z,0.57
2019-06-20T04:50:04.819Z,0.90
2019-06-20T04:50:40.694Z,0.70
2019-06-20T04:51:16.557Z,0.73
2019-06-20T04:51:52.465Z,0.70
2019-06-20T04:52:28.288Z,0.77
2019-06-20T04:53:04.094Z,0.67
2019-06-20T04:53:39.972Z,0.97
2019-06-20T04:54:15.832Z,0.90
2019-06-20T04:54:51.680Z,0.70
2019-06-20T04:55:27.509Z,0.60
2019-06-20T04:56:05.761Z,0.70
2019-06-20T04:56:40.963Z,0.70
2019-06-20T04:57:16.831Z,0.93
2019-06-20T04:57:52.687Z,0.70
2019-06-20T04:58:28.542Z,0.80
2019-06-20T04:59:04.325Z,0.70
2019-06-20T04:59:40.197Z,0.70
2019-06-20T05:00:16.164Z,0.80
2019-06-20T05:00:51.993Z,0.57
2019-06-20T05:01:27.797Z,0.67
2019-06-20T05:02:03.619Z,0.90
2019-06-20T05:02:39.817Z,0.83
2019-06-20T05:03:15.815Z,0.70
2019-06-20T05:03:51.653Z,0.80
2019-06-20T05:04:27.479Z,1.00
2019-06-20T05:05:03.975Z,1.00
2019-06-20T05:05:39.756Z,0.70
2019-06-20T05:06:15.635Z,0.90
2019-06-20T05:06:55.210Z,0.53
2019-06-20T05:07:31.002Z,0.70
2019-06-20T05:08:06.838Z,0.80
2019-06-20T05:08:42.680Z,1.67
2019-06-20T05:09:18.866Z,1.70
2019-06-20T05:09:54.696Z,2.13
2019-06-20T05:10:30.524Z,2.30
2019-06-20T05:11:06.354Z,2.37
2019-06-20T05:11:42.168Z,2.47
2019-06-20T05:12:17.985Z,1.93
2019-06-20T05:12:55.931Z,2.33
2019-06-20T05:13:31.453Z,1.97
2019-06-20T05:14:07.278Z,2.20
2019-06-20T05:14:43.106Z,2.37
2019-06-20T05:15:18.959Z,1.80
2019-06-20T05:15:54.776Z,2.50
2019-06-20T05:16:30.660Z,2.53
2019-06-20T05:17:07.360Z,1.90
2019-06-20T05:17:43.366Z,2.50
2019-06-20T05:18:19.150Z,2.33
2019-06-20T05:18:55.317Z,2.80
2019-06-20T05:19:31.255Z,2.67
2019-06-20T05:20:07.357Z,2.33
2019-06-20T05:20:43.274Z,2.17
2019-06-20T05:21:22.309Z,2.67
2019-06-20T05:21:56.787Z,2.17
2019-06-20T05:22:32.585Z,2.80
2019-06-20T05:23:08.462Z,1.90
2019-06-20T05:23:44.258Z,2.23
2019-06-20T05:24:20.067Z,2.60
2019-06-20T05:24:55.936Z,2.50
2019-06-20T05:25:31.770Z,1.90
2019-06-20T05:26:07.606Z,2.30
2019-06-20T05:26:43.436Z,2.67
2019-06-20T05:27:19.400Z,2.70
2019-06-20T05:27:55.274Z,3.07
2019-06-20T05:28:31.076Z,2.73
2019-06-20T05:29:06.938Z,3.50
2019-06-20T05:29:42.765Z,3.47
2019-06-20T05:30:19.317Z,2.63
2019-06-20T05:30:55.177Z,2.70
2019-06-20T05:31:31.322Z,3.10
2019-06-20T05:32:07.207Z,3.20
2019-06-20T05:32:43.087Z,3.07
2019-06-20T05:33:18.922Z,2.97
2019-06-20T05:33:54.793Z,3.80
2019-06-20T05:34:30.591Z,3.37
2019-06-20T05:35:07.664Z,2.90
2019-06-20T05:35:44.061Z,2.87
2019-06-20T05:36:19.905Z,2.17
2019-06-20T05:36:55.743Z,2.57
2019-06-20T05:37:31.563Z,2.60
2019-06-20T05:38:07.489Z,2.53
2019-06-20T05:38:43.331Z,1.90
2019-06-20T05:39:19.337Z,2.27
2019-06-20T05:39:55.151Z,3.00
2019-06-20T05:40:31.003Z,2.37
2019-06-20T05:41:06.886Z,2.00
2019-06-20T05:41:42.818Z,3.50
2019-06-20T05:42:18.760Z,2.23
2019-06-20T05:42:54.621Z,2.70
2019-06-20T05:43:30.493Z,2.60
2019-06-20T05:44:06.270Z,2.13
2019-06-20T05:44:42.173Z,2.37
2019-06-20T05:45:17.993Z,2.53
2019-06-20T05:46:08.227Z,2.40
2019-06-20T05:46:31.500Z,2.10
2019-06-20T05:47:12.448Z,2.43
2019-06-20T05:47:45.040Z,2.73
2019-06-20T05:48:20.997Z,1.97
2019-06-20T05:48:56.845Z,2.50
2019-06-20T05:49:32.654Z,1.87
2019-06-20T05:50:08.629Z,2.67
2019-06-20T05:50:44.493Z,2.20
2019-06-20T05:51:20.353Z,2.40
2019-06-20T05:51:56.177Z,1.90
2019-06-20T05:52:32.070Z,1.93
2019-06-20T05:53:07.899Z,2.60
2019-06-20T05:53:43.749Z,2.10
2019-06-20T05:54:19.709Z,2.20
2019-06-20T05:54:55.666Z,1.83
2019-06-20T05:55:31.520Z,2.20
2019-06-20T05:56:08.703Z,1.67
2019-06-20T05:56:44.764Z,1.80
2019-06-20T05:57:20.674Z,2.00
2019-06-20T05:57:56.486Z,1.50
2019-06-20T05:58:32.940Z,2.03
2019-06-20T05:59:08.917Z,2.10
2019-06-20T05:59:44.738Z,2.20
2019-06-20T06:00:22.315Z,2.40
2019-06-20T06:00:58.266Z,2.13
2019-06-20T06:01:34.110Z,2.00
2019-06-20T06:02:10.128Z,1.70
2019-06-20T06:02:45.998Z,1.63
2019-06-20T06:03:21.989Z,2.50
2019-06-20T06:03:58.236Z,1.97
2019-06-20T06:04:34.151Z,2.07
2019-06-20T06:05:09.961Z,2.20
2019-06-20T06:05:45.862Z,1.83
2019-06-20T06:06:21.713Z,2.40
2019-06-20T06:06:57.616Z,2.00
2019-06-20T06:07:33.481Z,2.10
2019-06-20T06:08:09.352Z,2.00
2019-06-20T06:08:45.136Z,2.00
2019-06-20T06:09:20.948Z,2.30
2019-06-20T06:09:57.106Z,2.53
2019-06-20T06:10:33.109Z,2.13
2019-06-20T06:11:08.951Z,2.17
2019-06-20T06:11:44.750Z,1.73
2019-06-20T06:12:20.829Z,2.10
2019-06-20T06:12:56.658Z,2.07
2019-06-20T06:13:32.473Z,2.10
2019-06-20T06:14:08.311Z,2.20
2019-06-20T06:14:44.122Z,1.97
2019-06-20T06:15:19.984Z,2.03
2019-06-20T06:15:55.773Z,2.10
2019-06-20T06:16:31.573Z,2.30
2019-06-20T06:17:07.371Z,2.80
2019-06-20T06:17:43.225Z,2.73
2019-06-20T06:18:19.087Z,2.33
2019-06-20T06:18:55.097Z,3.07
2019-06-20T06:19:31.082Z,2.93
2019-06-20T06:20:07.459Z,2.50
2019-06-20T06:20:44.961Z,2.83
2019-06-20T06:21:20.935Z,2.50
2019-06-20T06:21:56.755Z,1.77
2019-06-20T06:22:32.634Z,2.87
2019-06-20T06:23:08.486Z,2.27
2019-06-20T06:23:44.327Z,2.73
2019-06-20T06:24:20.113Z,2.60
2019-06-20T06:24:55.951Z,2.83
2019-06-20T06:25:31.937Z,2.40
2019-06-20T06:26:07.815Z,2.77
2019-06-20T06:26:43.650Z,2.80
2019-06-20T06:27:19.776Z,2.40
2019-06-20T06:27:55.703Z,2.90
2019-06-20T06:28:31.494Z,2.40
2019-06-20T06:29:07.596Z,2.57
2019-06-20T06:29:43.392Z,2.63
2019-06-20T06:30:19.444Z,2.77
2019-06-20T06:30:55.292Z,2.63
2019-06-20T06:31:31.164Z,2.57
2019-06-20T06:32:07.009Z,2.77
2019-06-20T06:32:42.843Z,2.90
2019-06-20T06:33:18.830Z,2.43
2019-06-20T06:33:54.645Z,2.97
2019-06-20T06:34:30.470Z,3.43
2019-06-20T06:35:07.347Z,2.30
2019-06-20T06:35:43.184Z,2.30
2019-06-20T06:36:18.970Z,2.53
2019-06-20T06:36:54.823Z,2.43
2019-06-20T06:37:30.642Z,2.40
2019-06-20T06:38:06.627Z,2.20
2019-06-20T06:38:42.444Z,2.40
2019-06-20T06:39:18.266Z,2.00
2019-06-20T06:39:54.096Z,2.40
2019-06-20T06:40:29.865Z,2.60
2019-06-20T06:41:05.723Z,1.87
2019-06-20T06:41:41.656Z,2.03
2019-06-20T06:42:17.481Z,2.70
2019-06-20T06:42:53.316Z,2.37
2019-06-20T06:43:29.110Z,2.30
2019-06-20T06:44:07.611Z,2.10
2019-06-20T06:44:42.579Z,3.07
2019-06-20T06:45:18.529Z,3.40
2019-06-20T06:45:54.397Z,2.20
2019-06-20T06:46:43.702Z,2.70
2019-06-20T06:47:07.938Z,2.13
2019-06-20T06:47:43.767Z,2.93
2019-06-20T06:48:19.593Z,2.40
2019-06-20T06:48:55.405Z,2.17
2019-06-20T06:49:31.285Z,2.23
2019-06-20T06:50:08.535Z,2.70
2019-06-20T06:50:44.489Z,2.77
2019-06-20T06:51:20.286Z,2.67
2019-06-20T06:51:56.116Z,2.60
2019-06-20T06:52:31.945Z,2.27
2019-06-20T06:53:07.751Z,2.80
2019-06-20T06:53:43.547Z,2.40
2019-06-20T06:54:19.431Z,3.10
2019-06-20T06:54:55.235Z,2.70
2019-06-20T06:55:31.091Z,2.27
2019-06-20T06:56:07.004Z,2.33
2019-06-20T06:56:42.977Z,1.70
2019-06-20T06:57:18.995Z,2.70
2019-06-20T06:57:54.981Z,2.33
2019-06-20T06:58:30.809Z,2.53
2019-06-20T06:59:06.684Z,2.73
2019-06-20T06:59:42.485Z,2.73
2019-06-20T07:00:19.826Z,2.67
2019-06-20T07:00:55.670Z,2.77
2019-06-20T07:01:31.752Z,3.03
2019-06-20T07:02:07.818Z,3.33
2019-06-20T07:02:43.815Z,3.20
2019-06-20T07:03:19.614Z,2.30
2019-06-20T07:03:55.645Z,3.00
2019-06-20T07:04:31.476Z,2.97
2019-06-20T07:05:07.727Z,2.40
2019-06-20T07:05:43.556Z,3.23
2019-06-20T07:06:19.359Z,3.20
2019-06-20T07:06:55.188Z,3.13
2019-06-20T07:07:31.027Z,3.00
2019-06-20T07:08:06.827Z,3.27
2019-06-20T07:08:42.719Z,3.07
2019-06-20T07:09:18.568Z,2.30
2019-06-20T07:09:54.429Z,3.20
2019-06-20T07:10:30.490Z,3.00
2019-06-20T07:11:06.692Z,2.03
2019-06-20T07:11:42.531Z,2.97
2019-06-20T07:12:18.475Z,3.23
2019-06-20T07:12:54.342Z,2.93
2019-06-20T07:13:30.195Z,2.97
2019-06-20T07:14:06.184Z,3.30
2019-06-20T07:14:42.934Z,3.07
2019-06-20T07:15:19.199Z,2.80
2019-06-20T07:15:55.054Z,2.60
2019-06-20T07:16:30.957Z,3.00
2019-06-20T07:17:06.957Z,3.57
2019-06-20T07:17:42.748Z,2.77
2019-06-20T07:18:18.563Z,2.97
2019-06-20T07:18:55.716Z,2.60
2019-06-20T07:19:31.544Z,2.77
2019-06-20T07:20:08.095Z,3.23
2019-06-20T07:20:43.937Z,2.97
2019-06-20T07:21:19.771Z,2.53
2019-06-20T07:21:55.634Z,2.83
2019-06-20T07:22:31.633Z,2.90
2019-06-20T07:23:07.456Z,2.70
2019-06-20T07:23:43.292Z,3.90
2019-06-20T07:24:19.123Z,3.57
2019-06-20T07:24:54.994Z,3.73
2019-06-20T07:25:30.828Z,3.03
2019-06-20T07:26:06.671Z,3.00
2019-06-20T07:26:42.564Z,3.20
2019-06-20T07:27:18.403Z,2.80
2019-06-20T07:27:54.217Z,2.90
2019-06-20T07:28:30.080Z,2.97
2019-06-20T07:29:06.100Z,2.73
2019-06-20T07:29:41.882Z,3.40
2019-06-20T07:30:19.209Z,2.83
2019-06-20T07:30:55.156Z,3.03
2019-06-20T07:31:31.057Z,2.75
2019-06-20T07:32:06.871Z,2.40
2019-06-20T07:32:42.838Z,2.77
2019-06-20T07:33:18.626Z,3.20
2019-06-20T07:33:54.443Z,2.70
2019-06-20T07:34:30.370Z,2.30
2019-06-20T07:35:06.588Z,2.37
2019-06-20T07:35:42.451Z,3.43
2019-06-20T07:36:18.344Z,3.00
2019-06-20T07:36:54.185Z,3.83
2019-06-20T07:37:29.958Z,3.07
2019-06-20T07:38:05.769Z,3.30
2019-06-20T07:38:41.580Z,2.83
2019-06-20T07:39:17.394Z,2.80
2019-06-20T07:39:53.349Z,2.37
2019-06-20T07:40:29.196Z,2.77
2019-06-20T07:41:05.135Z,3.03
2019-06-20T07:41:40.964Z,3.20
2019-06-20T07:42:16.965Z,3.03
2019-06-20T07:42:52.782Z,2.90
2019-06-20T07:43:28.630Z,2.87
2019-06-20T07:44:04.595Z,3.40
2019-06-20T07:44:40.405Z,2.33
2019-06-20T07:45:16.292Z,3.10
2019-06-20T07:46:02.188Z,2.57
2019-06-20T07:46:29.868Z,3.40
2019-06-20T07:47:16.977Z,2.90
2019-06-20T07:47:43.434Z,2.70
2019-06-20T07:48:19.255Z,3.77
2019-06-20T07:48:55.118Z,3.67
2019-06-20T07:49:30.972Z,2.80
2019-06-20T07:50:07.905Z,2.60
2019-06-20T07:50:43.885Z,3.87
2019-06-20T07:51:19.811Z,3.23
2019-06-20T07:51:55.649Z,3.40
2019-06-20T07:52:31.629Z,3.57
2019-06-20T07:53:07.479Z,2.90
2019-06-20T07:53:43.307Z,3.30
2019-06-20T07:54:19.223Z,3.57
2019-06-20T07:54:55.048Z,2.90
2019-06-20T07:55:30.894Z,3.00
2019-06-20T07:56:09.373Z,3.10
2019-06-20T07:56:44.454Z,3.33
2019-06-20T07:57:20.236Z,3.53
2019-06-20T07:57:56.066Z,3.17
2019-06-20T07:58:31.874Z,3.57
2019-06-20T07:59:07.824Z,3.53
2019-06-20T07:59:43.620Z,3.43
2019-06-20T08:00:19.580Z,3.80